Time;durP1;ratioP1;P1;durP2;ratioP2;P2;SDS_P1;SDS_P2;PMS_P1;PMS_P2;Temp;Humidity;BMP_temperature;BMP_pressure;BME280_temperature;BME280_humidity;BME280_pressure;Samples;Min_cycle;Max_cycle;Signal;HPM_P1;HPM_P2
2022/03/29 00:01:15;;;;;;;44.10;23.67;;;15.50;91.90;;;;;;6312092;22;20485;-92
2022/03/29 00:03:41;;;;;;;43.40;22.17;;;15.40;92.20;;;;;;6312802;22;20178;-94
2022/03/29 00:06:06;;;;;;;45.30;24.77;;;15.40;92.00;;;;;;6338469;22;20577;-88
2022/03/29 00:08:32;;;;;;;52.57;25.10;;;15.40;91.70;;;;;;6312588;22;20222;-93
2022/03/29 00:10:58;;;;;;;41.73;22.97;;;15.50;91.80;;;;;;6338865;22;20239;-92
2022/03/29 00:13:24;;;;;;;45.47;24.77;;;15.50;91.80;;;;;;6339668;22;20149;-95
2022/03/29 00:15:49;;;;;;;43.80;23.50;;;15.50;91.60;;;;;;6312058;22;20168;-95
2022/03/29 00:18:15;;;;;;;44.33;22.83;;;15.30;91.90;;;;;;6338551;22;20149;-95
2022/03/29 00:20:41;;;;;;;44.27;22.33;;;15.20;92.10;;;;;;6312418;22;20152;-94
2022/03/29 00:23:06;;;;;;;43.70;24.17;;;15.30;92.20;;;;;;6338679;22;20145;-90
2022/03/29 00:25:33;;;;;;;44.27;24.90;;;15.30;92.00;;;;;;6312229;22;20173;-94
2022/03/29 00:27:58;;;;;;;42.00;23.00;;;15.20;92.00;;;;;;6339970;22;20589;-94
2022/03/29 00:30:24;;;;;;;45.20;23.07;;;15.30;91.80;;;;;;6339686;22;20133;-93
2022/03/29 00:32:50;;;;;;;45.40;23.80;;;15.40;91.40;;;;;;6339659;22;20147;-94
2022/03/29 00:35:15;;;;;;;46.40;24.27;;;15.40;91.30;;;;;;6339878;22;20212;-94
2022/03/29 00:37:43;;;;;;;45.10;23.33;;;15.30;91.50;;;;;;6312399;22;20153;-93
2022/03/29 00:40:11;;;;;;;41.43;22.97;;;15.20;91.90;;;;;;6312396;22;20169;-88
2022/03/29 00:42:37;;;;;;;45.33;23.20;;;15.20;91.70;;;;;;6312421;22;20229;-91
2022/03/29 00:45:03;;;;;;;48.83;24.23;;;15.20;91.40;;;;;;6339598;22;20207;-89
2022/03/29 00:47:30;;;;;;;44.67;23.83;;;15.20;91.30;;;;;;6311824;22;20153;-94
2022/03/29 00:49:56;;;;;;;48.17;23.67;;;15.10;91.20;;;;;;6338464;22;20173;-93
2022/03/29 00:52:22;;;;;;;45.83;23.60;;;15.10;91.60;;;;;;6338058;22;20519;-93
2022/03/29 00:54:48;;;;;;;45.40;22.73;;;15.10;91.50;;;;;;6312435;22;20220;-92
2022/03/29 00:57:15;;;;;;;46.03;24.07;;;15.20;91.30;;;;;;6312316;22;20181;-94
2022/03/29 00:59:42;;;;;;;45.73;24.23;;;15.10;91.40;;;;;;6339947;22;20133;-94
2022/03/29 01:02:08;;;;;;;43.30;22.50;;;15.30;91.00;;;;;;6317463;22;20169;-94
2022/03/29 01:04:34;;;;;;;47.13;23.57;;;15.40;90.70;;;;;;6348151;22;20180;-93
2022/03/29 01:07:00;;;;;;;43.87;23.30;;;15.30;90.90;;;;;;6338229;22;20159;-93
2022/03/29 01:09:26;;;;;;;46.73;23.43;;;15.10;91.40;;;;;;6312181;22;20485;-94
2022/03/29 01:11:52;;;;;;;41.17;23.27;;;15.00;91.40;;;;;;6339415;22;20600;-92
2022/03/29 01:14:21;;;;;;;46.13;23.87;;;14.90;91.80;;;;;;6337850;22;20160;-94
2022/03/29 01:19:31;;;;;;;45.67;24.43;;;14.70;92.30;;;;;;6339696;22;20527;-94
2022/03/29 01:22:01;;;;;;;46.43;24.47;;;14.70;92.30;;;;;;6339401;22;20592;-89
2022/03/29 01:24:28;;;;;;;47.97;23.33;;;14.60;92.50;;;;;;6311511;22;20206;-95
2022/03/29 01:26:57;;;;;;;45.77;23.57;;;14.50;92.70;;;;;;6311870;22;20148;-95
2022/03/29 01:29:23;;;;;;;43.17;22.77;;;14.50;92.60;;;;;;6339132;22;20132;-95
2022/03/29 01:31:49;;;;;;;44.00;22.97;;;14.50;92.90;;;;;;6338227;22;20159;-95
2022/03/29 01:34:16;;;;;;;44.80;23.03;;;14.40;93.00;;;;;;6339569;22;20135;-94
2022/03/29 01:36:42;;;;;;;46.03;23.00;;;14.50;92.90;;;;;;6311978;22;20209;-92
2022/03/29 01:39:07;;;;;;;40.70;22.43;;;14.50;92.90;;;;;;6337559;22;20157;-95
2022/03/29 01:41:33;;;;;;;43.60;21.83;;;14.80;92.60;;;;;;6337658;22;20566;-94
2022/03/29 01:43:59;;;;;;;44.10;23.23;;;14.60;92.50;;;;;;6337227;22;20155;-93
2022/03/29 01:46:26;;;;;;;41.77;21.43;;;14.60;92.70;;;;;;6337769;22;20486;-94
2022/03/29 01:48:52;;;;;;;40.73;21.57;;;14.60;92.70;;;;;;6311389;22;20153;-93
2022/03/29 01:51:18;;;;;;;42.37;20.93;;;14.50;92.80;;;;;;6337905;22;20518;-93
2022/03/29 01:53:46;;;;;;;42.67;21.43;;;14.60;92.60;;;;;;6337601;22;20145;-93
2022/03/29 01:56:12;;;;;;;41.27;20.63;;;14.50;92.60;;;;;;6313459;22;20202;-92
2022/03/29 01:58:37;;;;;;;39.87;20.67;;;14.50;92.70;;;;;;6349974;22;20153;-91
2022/03/29 02:01:03;;;;;;;43.37;20.70;;;14.50;92.80;;;;;;6345951;22;20167;-94
2022/03/29 02:03:29;;;;;;;43.50;21.30;;;14.50;92.90;;;;;;6311601;22;20150;-94
2022/03/29 02:05:54;;;;;;;40.03;20.33;;;14.40;93.00;;;;;;6337677;22;20181;-93
2022/03/29 02:08:20;;;;;;;43.37;19.70;;;14.40;92.80;;;;;;6337809;22;20200;-92
2022/03/29 02:10:46;;;;;;;40.30;19.63;;;14.60;92.80;;;;;;6338022;22;20596;-94
2022/03/29 02:13:11;;;;;;;36.10;20.83;;;14.80;91.90;;;;;;6311186;22;20137;-93
2022/03/29 02:15:39;;;;;;;39.37;20.13;;;14.80;91.80;;;;;;6338118;22;20237;-94
2022/03/29 02:18:05;;;;;;;45.77;21.60;;;14.80;91.70;;;;;;6311869;22;20149;-95
2022/03/29 02:20:31;;;;;;;36.97;20.53;;;14.70;91.90;;;;;;6311774;22;20157;-91
2022/03/29 02:23:06;;;;;;;38.50;19.93;;;14.60;92.20;;;;;;6312807;22;20180;-93
2022/03/29 02:25:32;;;;;;;38.90;19.63;;;14.60;92.10;;;;;;6311999;22;20623;-94
2022/03/29 02:27:58;;;;;;;38.30;19.13;;;14.60;91.90;;;;;;6313071;22;20145;-95
2022/03/29 02:30:24;;;;;;;38.17;19.90;;;14.40;92.30;;;;;;6314101;22;20481;-93
2022/03/29 02:32:50;;;;;;;37.90;20.60;;;14.30;92.80;;;;;;6314208;22;20145;-94
2022/03/29 02:35:16;;;;;;;34.07;18.97;;;14.40;92.50;;;;;;6313992;22;20531;-94
2022/03/29 02:37:42;;;;;;;31.20;19.03;;;14.40;92.50;;;;;;6342754;22;20152;-94
2022/03/29 02:40:09;;;;;;;40.47;19.63;;;14.50;92.40;;;;;;6343102;22;20217;-92
2022/03/29 02:42:46;;;;;;;40.07;19.80;;;14.30;92.80;;;;;;6315534;22;20144;-95
2022/03/29 02:45:17;;;;;;;43.33;19.87;;;14.40;92.90;;;;;;6315532;22;20230;-94
2022/03/29 02:47:44;;;;;;;40.13;19.90;;;14.40;92.80;;;;;;6315506;22;20524;-93
2022/03/29 02:50:12;;;;;;;43.80;20.00;;;14.40;92.80;;;;;;6315462;22;20152;-94
2022/03/29 02:52:47;;;;;;;42.07;20.23;;;14.60;92.30;;;;;;6342176;22;20149;-92
2022/03/29 02:55:14;;;;;;;40.13;19.50;;;14.40;92.60;;;;;;6315521;22;20154;-92
2022/03/29 02:57:41;;;;;;;41.33;19.43;;;14.20;93.10;;;;;;6315516;22;20141;-93
2022/03/29 03:00:07;;;;;;;41.93;20.13;;;14.00;93.40;;;;;;6314894;22;20170;-91
2022/03/29 03:02:33;;;;;;;37.80;19.27;;;14.00;93.60;;;;;;6315947;22;20164;-92
2022/03/29 03:05:02;;;;;;;41.40;19.60;;;14.10;93.60;;;;;;6315344;22;20201;-92
2022/03/29 03:07:28;;;;;;;41.47;19.17;;;14.10;93.60;;;;;;6341354;22;20169;-92
2022/03/29 03:09:54;;;;;;;36.53;20.60;;;14.10;93.50;;;;;;6342123;22;20569;-94
2022/03/29 03:12:20;;;;;;;34.57;20.30;;;14.10;93.70;;;;;;6347640;22;20190;-92
2022/03/29 03:14:46;;;;;;;34.07;18.00;;;14.00;93.60;;;;;;6346476;22;20169;-92
2022/03/29 03:17:12;;;;;;;33.87;18.27;;;14.30;93.00;;;;;;6345346;22;20137;-91
2022/03/29 03:19:37;;;;;;;36.90;18.37;;;14.20;92.80;;;;;;6339443;22;20142;-93
2022/03/29 03:22:03;;;;;;;37.50;17.40;;;14.10;93.10;;;;;;6339197;22;20214;-93
2022/03/29 03:24:29;;;;;;;34.83;17.43;;;14.10;92.80;;;;;;6338558;22;20169;-93
2022/03/29 03:26:55;;;;;;;35.17;16.73;;;14.10;92.90;;;;;;6339672;22;20180;-93
2022/03/29 03:29:20;;;;;;;33.10;18.03;;;14.00;93.10;;;;;;6339394;22;20519;-92
2022/03/29 03:31:46;;;;;;;34.63;17.70;;;13.90;93.60;;;;;;6340902;22;20144;-93
2022/03/29 03:34:11;;;;;;;37.47;18.47;;;13.80;93.60;;;;;;6339520;22;20153;-93
2022/03/29 03:36:37;;;;;;;38.80;18.50;;;13.80;93.80;;;;;;6338930;22;20618;-93
2022/03/29 03:39:03;;;;;;;35.63;17.13;;;13.90;93.60;;;;;;6312466;22;20234;-93
2022/03/29 03:41:29;;;;;;;38.00;17.87;;;13.90;93.80;;;;;;6338444;22;20149;-89
2022/03/29 03:43:55;;;;;;;36.47;17.63;;;13.90;93.60;;;;;;6338658;22;20152;-93
2022/03/29 03:46:21;;;;;;;41.67;17.73;;;14.00;93.50;;;;;;6338718;22;20150;-88
2022/03/29 03:48:46;;;;;;;35.50;18.17;;;13.90;94.00;;;;;;6339315;22;20198;-94
2022/03/29 03:51:12;;;;;;;33.73;17.07;;;13.90;93.80;;;;;;6338607;22;20140;-93
2022/03/29 03:53:37;;;;;;;33.77;15.83;;;13.80;94.10;;;;;;6338538;22;20206;-94
2022/03/29 03:56:03;;;;;;;37.53;18.23;;;13.70;94.20;;;;;;6338608;22;20201;-93
2022/03/29 03:58:29;;;;;;;35.93;16.53;;;13.60;94.40;;;;;;6312621;22;20231;-93
2022/03/29 04:00:55;;;;;;;37.53;17.03;;;13.50;94.90;;;;;;6312620;22;20167;-94
2022/03/29 04:03:20;;;;;;;36.30;17.00;;;13.50;95.10;;;;;;6338681;22;20526;-94
2022/03/29 04:05:46;;;;;;;31.97;17.07;;;13.40;94.90;;;;;;6340159;22;20171;-94
2022/03/29 04:08:12;;;;;;;31.53;16.53;;;13.50;94.70;;;;;;6338216;22;20178;-93
2022/03/29 04:10:38;;;;;;;35.33;16.40;;;13.50;94.60;;;;;;6338687;22;20160;-92
2022/03/29 04:13:04;;;;;;;33.33;16.03;;;13.50;94.50;;;;;;6312883;22;20145;-91
2022/03/29 04:15:31;;;;;;;38.20;15.87;;;13.60;94.20;;;;;;6338420;22;20224;-91
2022/03/29 04:17:57;;;;;;;32.47;16.23;;;13.60;94.00;;;;;;6338587;22;20587;-92
2022/03/29 04:20:22;;;;;;;33.07;16.37;;;13.70;93.90;;;;;;6338757;22;20149;-92
2022/03/29 04:22:48;;;;;;;28.37;15.37;;;13.60;94.00;;;;;;6338261;22;20157;-93
2022/03/29 04:25:14;;;;;;;36.40;15.83;;;13.50;94.50;;;;;;6338427;22;20174;-94
2022/03/29 04:27:39;;;;;;;32.37;14.27;;;13.50;94.40;;;;;;6312438;22;20171;-92
2022/03/29 04:30:06;;;;;;;39.70;15.97;;;13.50;94.40;;;;;;6338649;22;20145;-93
2022/03/29 04:32:31;;;;;;;32.00;15.00;;;13.60;93.90;;;;;;6312340;22;20148;-93
2022/03/29 04:34:57;;;;;;;34.37;15.73;;;13.60;93.70;;;;;;6338568;22;20168;-94
2022/03/29 04:37:24;;;;;;;31.77;15.73;;;13.60;93.90;;;;;;6338153;22;20156;-93
2022/03/29 04:39:50;;;;;;;35.80;16.00;;;13.60;93.70;;;;;;6339213;22;20160;-93
2022/03/29 04:42:18;;;;;;;33.67;15.93;;;13.60;93.80;;;;;;6312145;22;20179;-93
2022/03/29 04:44:44;;;;;;;29.80;15.80;;;13.60;94.00;;;;;;6338437;22;20176;-93
2022/03/29 04:47:10;;;;;;;33.87;16.47;;;13.50;93.90;;;;;;6338627;22;20209;-92
2022/03/29 04:49:35;;;;;;;32.77;15.90;;;13.50;94.00;;;;;;6321739;22;20149;-92
2022/03/29 04:52:01;;;;;;;40.43;16.70;;;13.40;94.30;;;;;;6348896;22;20161;-94
2022/03/29 04:54:28;;;;;;;31.93;16.77;;;13.40;94.50;;;;;;6312315;22;20180;-94
2022/03/29 04:56:53;;;;;;;36.30;16.03;;;13.50;94.20;;;;;;6312293;22;20152;-94
2022/03/29 04:59:19;;;;;;;31.83;16.03;;;13.40;94.30;;;;;;6312058;22;20233;-90
2022/03/29 05:01:45;;;;;;;36.07;16.00;;;13.20;94.70;;;;;;6337934;22;20199;-92
2022/03/29 05:04:10;;;;;;;31.53;16.50;;;13.20;94.80;;;;;;6312072;22;20603;-93
2022/03/29 05:06:36;;;;;;;35.60;16.63;;;13.10;95.10;;;;;;6336964;22;20168;-93
2022/03/29 05:09:03;;;;;;;33.37;16.10;;;13.10;95.30;;;;;;6336969;22;20237;-93
2022/03/29 05:11:29;;;;;;;39.73;16.50;;;12.90;95.70;;;;;;6310095;22;20152;-95
2022/03/29 05:13:55;;;;;;;30.90;16.23;;;12.80;96.00;;;;;;6311137;22;20152;-94
2022/03/29 05:16:20;;;;;;;39.27;16.27;;;12.80;96.00;;;;;;6338082;22;20485;-93
2022/03/29 05:18:46;;;;;;;31.30;15.80;;;12.80;96.30;;;;;;6339326;22;20144;-94
2022/03/29 05:21:12;;;;;;;34.17;16.43;;;12.60;96.50;;;;;;6338101;22;20147;-93
2022/03/29 05:23:39;;;;;;;35.33;16.43;;;12.60;96.70;;;;;;6311516;22;20158;-94
2022/03/29 05:26:04;;;;;;;38.37;16.63;;;12.30;97.20;;;;;;6337782;22;20260;-94
2022/03/29 05:28:30;;;;;;;38.33;17.17;;;12.30;97.70;;;;;;6339308;22;20577;-94
2022/03/29 05:30:56;;;;;;;33.17;16.13;;;12.30;97.90;;;;;;6338188;22;20250;-94
2022/03/29 05:33:21;;;;;;;33.73;16.97;;;12.30;97.90;;;;;;6339323;22;20139;-93
2022/03/29 05:35:47;;;;;;;35.97;16.50;;;12.40;97.80;;;;;;6338051;22;20163;-94
2022/03/29 05:38:12;;;;;;;33.40;16.67;;;12.50;97.30;;;;;;6339649;22;20156;-92
2022/03/29 05:40:39;;;;;;;34.97;15.80;;;12.50;97.40;;;;;;6312418;22;20203;-92
2022/03/29 05:43:10;;;;;;;37.40;17.43;;;12.50;97.60;;;;;;6338745;22;20148;-91
2022/03/29 05:45:36;;;;;;;33.03;15.53;;;12.50;97.60;;;;;;6311168;22;20183;-93
2022/03/29 05:50:45;;;;;;;44.87;16.50;;;12.30;98.20;;;;;;6338208;22;20640;-93
2022/03/29 05:53:11;;;;;;;33.00;15.93;;;12.20;98.60;;;;;;6337373;22;20151;-94
2022/03/29 05:55:37;;;;;;;37.33;15.90;;;12.20;98.70;;;;;;6339235;22;20583;-94
2022/03/29 06:04:26;;;;;;;;;;;;;;;;;;;;;
2022/03/29 14:59:38;;;;;;;;;;;;;;;;;;;;;
2022/03/29 15:06:13;;;;;;;;;;;;;;;;;;;;;
2022/03/29 15:16:10;;;;;;;;;;;;;;;;;;;;;
2022/03/29 15:20:08;;;;;;;;;;;;;;;;;;;;;
2022/03/29 15:23:16;;;;;;;;;;;;;;;;;;;;;
2022/03/29 15:29:51;;;;;;;46.23;27.23;;;20.40;69.40;;;;;;6282262;22;20156;-95
2022/03/29 15:32:41;;;;;;;;;;;;;;;;;;;;;
2022/03/29 15:35:51;;;;;;;;;;;;;;;;;;;;;
2022/03/29 15:42:34;;;;;;;;;;;;;;;;;;;;;
2022/03/29 15:55:50;;;;;;;;;;;;;;;;;;;;;
2022/03/29 16:02:28;;;;;;;;;;;;;;;;;;;;;
2022/03/29 16:05:50;;;;;;;;;;;;;;;;;;;;;
2022/03/29 16:12:36;;;;;;;;;;;;;;;;;;;;;
2022/03/29 16:15:32;;;;;;;;;;;;;;;;;;;;;
2022/03/29 16:35:44;;;;;;;60.90;34.13;;;19.00;75.50;;;;;;6286883;22;20167;-95
2022/03/29 17:10:03;;;;;;;57.90;33.07;;;18.40;76.90;;;;;;6262490;22;20211;-90
2022/03/29 17:12:29;;;;;;;60.13;32.73;;;18.30;77.40;;;;;;6249799;22;20230;-85
2022/03/29 17:14:55;;;;;;;62.37;33.50;;;18.20;77.20;;;;;;6249518;22;20150;-85
2022/03/29 17:17:21;;;;;;;59.10;33.00;;;18.30;77.20;;;;;;6275103;22;20152;-85
2022/03/29 17:19:48;;;;;;;55.97;31.70;;;18.20;77.30;;;;;;6249662;22;20141;-85
2022/03/29 17:22:14;;;;;;;52.30;30.53;;;18.10;78.00;;;;;;6276287;22;20137;-85
2022/03/29 17:24:39;;;;;;;49.23;30.97;;;17.90;78.40;;;;;;6249601;22;20585;-85
2022/03/29 17:27:05;;;;;;;54.47;31.57;;;17.80;78.30;;;;;;6249437;22;20527;-85
2022/03/29 17:29:31;;;;;;;46.57;28.63;;;18.00;77.30;;;;;;6245920;22;20232;-84
2022/03/29 17:31:57;;;;;;;49.60;29.73;;;18.00;77.20;;;;;;6249163;22;20198;-84
2022/03/29 17:34:25;;;;;;;47.47;29.83;;;18.00;77.50;;;;;;6248488;22;20147;-84
2022/03/29 17:36:51;;;;;;;46.77;28.90;;;17.90;77.40;;;;;;6249574;22;20147;-84
2022/03/29 17:39:17;;;;;;;49.17;29.77;;;17.80;77.50;;;;;;6248539;22;20216;-84
2022/03/29 17:41:42;;;;;;;46.10;28.37;;;17.80;77.50;;;;;;6248648;22;20184;-84
2022/03/29 17:44:10;;;;;;;43.93;28.00;;;17.70;77.80;;;;;;6248941;22;20140;-83
2022/03/29 17:46:36;;;;;;;45.53;27.70;;;17.60;78.10;;;;;;6275370;22;20226;-84
2022/03/29 17:49:02;;;;;;;47.20;28.43;;;17.50;78.50;;;;;;6248708;22;20178;-84
2022/03/29 17:51:28;;;;;;;49.00;29.40;;;17.70;78.00;;;;;;6248925;22;20147;-84
2022/03/29 17:53:54;;;;;;;42.97;27.73;;;17.70;77.80;;;;;;6248753;22;20509;-84
2022/03/29 17:56:20;;;;;;;45.57;28.10;;;17.50;79.00;;;;;;6248135;22;20197;-83
2022/03/29 17:58:45;;;;;;;47.17;28.77;;;17.50;78.40;;;;;;6248222;22;20460;-84
2022/03/29 18:01:12;;;;;;;42.20;28.00;;;17.50;78.40;;;;;;6247907;22;20784;-84
2022/03/29 18:03:40;;;;;;;45.40;28.37;;;17.50;78.60;;;;;;6248262;22;20239;-85
2022/03/29 18:06:07;;;;;;;48.40;28.97;;;17.40;79.10;;;;;;6248634;22;20182;-84
2022/03/29 18:08:32;;;;;;;47.40;28.93;;;17.30;79.40;;;;;;6248710;22;20184;-86
2022/03/29 18:10:59;;;;;;;44.17;27.47;;;17.30;79.20;;;;;;6248150;22;20166;-83
2022/03/29 18:13:25;;;;;;;46.73;28.47;;;17.30;79.10;;;;;;6248123;22;20140;-83
2022/03/29 18:15:51;;;;;;;43.67;27.57;;;17.40;78.70;;;;;;6248794;22;20154;-86
2022/03/29 18:18:17;;;;;;;49.67;28.07;;;17.40;78.80;;;;;;6248733;22;20581;-90
2022/03/29 18:20:42;;;;;;;45.93;27.73;;;17.20;79.40;;;;;;6248662;22;20152;-83
2022/03/29 18:23:08;;;;;;;43.97;26.97;;;17.10;79.80;;;;;;6248533;22;20146;-86
2022/03/29 18:25:36;;;;;;;45.80;27.07;;;17.00;80.00;;;;;;6247546;22;20561;-87
2022/03/29 18:28:03;;;;;;;39.37;26.33;;;17.10;79.80;;;;;;6248654;22;20192;-86
2022/03/29 18:30:29;;;;;;;43.73;27.80;;;17.10;79.60;;;;;;6248186;22;20147;-86
2022/03/29 18:32:55;;;;;;;40.47;25.57;;;17.10;79.40;;;;;;6248478;22;20373;-86
2022/03/29 18:35:22;;;;;;;37.40;25.57;;;17.10;79.20;;;;;;6248592;22;20163;-84
2022/03/29 18:37:50;;;;;;;41.43;25.80;;;17.00;79.70;;;;;;6247719;22;20207;-86
2022/03/29 18:40:17;;;;;;;45.53;26.93;;;16.90;80.20;;;;;;6248061;22;20178;-83
2022/03/29 18:42:44;;;;;;;36.97;25.07;;;16.90;80.40;;;;;;6248397;22;20162;-86
2022/03/29 18:45:10;;;;;;;39.87;25.80;;;16.80;80.60;;;;;;6248228;22;20257;-85
2022/03/29 18:47:36;;;;;;;39.70;25.13;;;16.80;80.30;;;;;;6248351;22;20227;-85
2022/03/29 18:50:05;;;;;;;33.10;23.20;;;16.90;79.10;;;;;;6275262;22;20532;-84
2022/03/29 18:52:31;;;;;;;35.73;23.10;;;16.90;78.60;;;;;;6247165;22;20158;-85
2022/03/29 18:54:57;;;;;;;35.07;23.07;;;16.90;78.20;;;;;;6247156;22;20150;-85
2022/03/29 18:57:23;;;;;;;37.63;23.63;;;16.80;78.70;;;;;;6248474;22;20196;-85
2022/03/29 18:59:49;;;;;;;36.07;23.10;;;16.90;78.20;;;;;;6246208;22;20167;-85
2022/03/29 19:02:14;;;;;;;39.70;22.73;;;16.80;78.60;;;;;;6247143;22;20204;-85
2022/03/29 19:04:40;;;;;;;33.03;22.50;;;16.80;78.30;;;;;;6248275;22;20150;-85
2022/03/29 19:07:07;;;;;;;33.17;22.20;;;16.70;78.40;;;;;;6247357;22;20168;-86
2022/03/29 19:09:34;;;;;;;35.73;23.10;;;16.60;78.70;;;;;;6248559;22;20174;-86
2022/03/29 19:12:00;;;;;;;35.37;21.67;;;16.80;78.60;;;;;;6277248;22;20150;-86
2022/03/29 19:14:27;;;;;;;36.07;22.93;;;16.70;78.40;;;;;;6251019;22;20154;-84
2022/03/29 19:16:53;;;;;;;35.87;22.07;;;16.70;78.40;;;;;;6250614;22;20147;-84
2022/03/29 19:19:18;;;;;;;32.47;21.77;;;16.50;78.90;;;;;;6276916;22;20135;-84
2022/03/29 19:21:45;;;;;;;35.30;22.10;;;16.50;79.50;;;;;;6249724;22;20479;-86
2022/03/29 19:24:11;;;;;;;32.70;21.90;;;16.40;79.50;;;;;;6249333;22;20233;-86
2022/03/29 19:26:37;;;;;;;34.83;23.40;;;16.40;80.10;;;;;;6248851;22;20224;-86
2022/03/29 19:29:04;;;;;;;35.80;22.33;;;16.30;80.50;;;;;;6250568;22;20165;-86
2022/03/29 19:31:33;;;;;;;30.37;21.33;;;16.20;80.50;;;;;;6249279;22;20146;-86
2022/03/29 19:33:59;;;;;;;33.77;22.30;;;16.20;80.80;;;;;;6250730;22;20146;-86
2022/03/29 19:36:26;;;;;;;33.20;21.97;;;16.10;81.10;;;;;;6277014;22;20135;-86
2022/03/29 19:39:38;;;;;;;32.73;22.60;;;16.00;81.10;;;;;;6250259;22;20502;-86
2022/03/29 19:42:22;;;;;;;31.10;21.73;;;16.10;80.80;;;;;;6239029;22;20155;-85
2022/03/29 19:44:50;;;;;;;37.30;22.07;;;16.00;81.00;;;;;;6250427;22;20175;-85
2022/03/29 19:47:27;;;;;;;32.83;21.87;;;16.00;80.90;;;;;;6250730;22;20151;-85
2022/03/29 19:49:55;;;;;;;36.23;22.33;;;15.90;81.40;;;;;;6250492;22;20147;-86
2022/03/29 19:52:21;;;;;;;31.23;20.77;;;15.90;81.30;;;;;;6250226;22;20580;-85
2022/03/29 19:54:49;;;;;;;36.10;22.07;;;15.80;81.60;;;;;;6250370;22;20151;-86
2022/03/29 19:57:15;;;;;;;31.87;21.37;;;15.70;81.90;;;;;;6250039;22;20146;-86
2022/03/29 19:59:41;;;;;;;35.47;21.53;;;15.60;81.80;;;;;;6250834;22;20173;-84
2022/03/29 20:02:09;;;;;;;35.37;22.17;;;15.70;81.60;;;;;;6250577;22;20153;-85
2022/03/29 20:04:36;;;;;;;32.43;21.27;;;15.90;80.70;;;;;;6250549;22;20146;-84
2022/03/29 20:07:06;;;;;;;34.00;22.17;;;16.00;79.80;;;;;;6249975;22;20158;-85
2022/03/29 20:09:35;;;;;;;36.93;21.47;;;16.00;80.10;;;;;;6249617;22;20203;-84
2022/03/29 20:12:02;;;;;;;33.93;21.43;;;16.00;79.90;;;;;;6248972;22;20161;-84
2022/03/29 20:14:29;;;;;;;39.20;21.53;;;16.00;79.60;;;;;;6249808;22;20145;-84
2022/03/29 20:16:56;;;;;;;34.13;20.40;;;15.90;79.80;;;;;;6249375;22;20177;-84
2022/03/29 20:19:22;;;;;;;37.13;21.63;;;15.90;79.50;;;;;;6249962;22;20541;-84
2022/03/29 20:21:49;;;;;;;34.20;20.97;;;15.90;79.20;;;;;;6249818;22;20146;-84
2022/03/29 20:24:16;;;;;;;34.83;19.70;;;15.80;79.30;;;;;;6250337;22;20142;-85
2022/03/29 20:26:42;;;;;;;36.67;21.80;;;15.70;80.00;;;;;;6250464;22;20208;-85
2022/03/29 20:29:09;;;;;;;35.07;21.37;;;15.70;79.80;;;;;;6250554;22;20149;-84
2022/03/29 20:31:36;;;;;;;36.30;21.57;;;15.70;80.20;;;;;;6250136;22;20181;-84
2022/03/29 20:34:03;;;;;;;33.07;20.63;;;15.70;80.20;;;;;;6277074;22;20141;-84
2022/03/29 20:36:30;;;;;;;33.97;21.43;;;15.70;80.00;;;;;;6250283;22;20154;-84
2022/03/29 20:38:55;;;;;;;32.37;21.13;;;15.80;79.80;;;;;;6250229;22;20157;-84
2022/03/29 20:41:21;;;;;;;31.93;20.43;;;15.70;80.10;;;;;;6276973;22;20481;-85
2022/03/29 20:43:49;;;;;;;33.10;20.50;;;15.80;79.70;;;;;;6249996;22;20235;-84
2022/03/29 20:46:18;;;;;;;31.70;19.93;;;15.60;80.20;;;;;;6249883;22;20182;-84
2022/03/29 20:48:44;;;;;;;30.87;19.10;;;15.50;80.00;;;;;;6249544;22;20153;-85
2022/03/29 20:51:11;;;;;;;33.57;20.23;;;15.40;81.00;;;;;;6249659;22;20199;-84
2022/03/29 20:53:43;;;;;;;31.17;19.93;;;15.40;80.50;;;;;;6249714;22;20146;-84
2022/03/29 20:56:08;;;;;;;30.20;19.73;;;15.40;79.80;;;;;;6248449;22;20189;-84
2022/03/29 20:58:34;;;;;;;32.03;18.83;;;15.40;80.10;;;;;;6247944;22;20142;-86
2022/03/29 21:01:00;;;;;;;30.80;18.40;;;15.40;79.30;;;;;;6247595;22;20181;-86
2022/03/29 21:03:25;;;;;;;29.60;18.20;;;15.60;78.50;;;;;;6248651;22;20139;-84
2022/03/29 21:05:51;;;;;;;30.90;18.50;;;15.50;78.50;;;;;;6249565;22;20187;-84
2022/03/29 21:08:17;;;;;;;27.83;17.70;;;15.60;77.90;;;;;;6250028;22;20189;-84
2022/03/29 21:10:47;;;;;;;28.67;18.17;;;15.50;78.40;;;;;;6249241;22;20648;-85
2022/03/29 21:13:13;;;;;;;28.97;17.87;;;15.30;77.90;;;;;;6248436;22;20177;-84
2022/03/29 21:15:39;;;;;;;30.03;17.80;;;15.50;77.70;;;;;;6274202;22;20235;-84
2022/03/29 21:18:05;;;;;;;28.80;17.93;;;15.40;77.30;;;;;;6248661;22;20168;-84
2022/03/29 21:20:34;;;;;;;31.67;17.90;;;15.40;77.20;;;;;;6248566;22;20174;-84
2022/03/29 21:23:32;;;;;;;27.43;16.90;;;15.40;77.50;;;;;;6248610;22;20180;-84
2022/03/29 21:26:00;;;;;;;28.57;17.83;;;15.50;76.70;;;;;;6225312;22;20192;-85
2022/03/29 21:28:30;;;;;;;27.63;18.20;;;15.40;76.90;;;;;;6248659;22;20589;-84
2022/03/29 21:30:55;;;;;;;27.50;17.57;;;15.30;77.20;;;;;;6248280;22;20184;-84
2022/03/29 21:33:21;;;;;;;28.93;16.93;;;15.40;77.10;;;;;;6247570;22;20579;-84
2022/03/29 21:35:47;;;;;;;26.80;17.43;;;15.30;76.70;;;;;;6275396;22;20212;-84
2022/03/29 21:38:13;;;;;;;27.70;17.37;;;15.30;76.50;;;;;;6275483;22;20138;-83
2022/03/29 21:40:40;;;;;;;26.77;18.10;;;15.20;77.00;;;;;;6248518;22;20160;-84
2022/03/29 21:43:07;;;;;;;28.07;18.03;;;15.20;77.00;;;;;;6276354;22;20137;-84
2022/03/29 21:45:32;;;;;;;25.20;17.43;;;15.20;76.70;;;;;;6247821;22;20552;-84
2022/03/29 21:47:59;;;;;;;27.73;17.40;;;15.30;76.50;;;;;;6247536;22;20144;-84
2022/03/29 21:50:27;;;;;;;25.33;17.43;;;15.20;76.30;;;;;;6249569;22;20157;-84
2022/03/29 21:52:53;;;;;;;28.53;17.23;;;15.20;76.60;;;;;;6276704;22;20136;-84
2022/03/29 21:55:19;;;;;;;27.30;18.40;;;15.20;76.50;;;;;;6250249;22;20151;-84
2022/03/29 21:57:45;;;;;;;27.10;17.23;;;15.00;77.00;;;;;;6247625;22;20153;-87
2022/03/29 22:00:13;;;;;;;29.10;18.80;;;15.10;76.90;;;;;;6244685;22;20703;-86
2022/03/29 22:02:38;;;;;;;27.23;18.30;;;15.10;76.90;;;;;;6246038;22;20204;-86
2022/03/29 22:05:05;;;;;;;29.13;19.43;;;15.00;77.00;;;;;;6249043;22;20181;-86
2022/03/29 22:07:32;;;;;;;31.40;18.50;;;15.00;77.40;;;;;;6249663;22;20478;-87
2022/03/29 22:09:57;;;;;;;27.63;17.10;;;15.00;77.30;;;;;;6275148;22;20592;-86
2022/03/29 22:12:23;;;;;;;29.97;18.57;;;15.00;77.60;;;;;;6249916;22;20179;-86
2022/03/29 22:14:48;;;;;;;28.10;18.70;;;14.90;77.80;;;;;;6248990;22;20187;-86
2022/03/29 22:17:14;;;;;;;30.10;19.20;;;14.80;78.20;;;;;;6249741;22;20153;-86
2022/03/29 22:19:40;;;;;;;30.80;19.30;;;14.90;78.30;;;;;;6249818;22;20155;-86
2022/03/29 22:22:06;;;;;;;28.30;19.23;;;14.90;78.30;;;;;;6249487;22;20157;-86
2022/03/29 22:24:31;;;;;;;29.20;18.63;;;14.90;77.90;;;;;;6249924;22;20156;-86
2022/03/29 22:26:57;;;;;;;33.10;18.90;;;14.90;78.40;;;;;;6249513;22;20207;-86
2022/03/29 22:29:23;;;;;;;29.97;19.03;;;14.80;78.80;;;;;;6250025;22;20146;-86
2022/03/29 22:31:49;;;;;;;30.77;19.93;;;14.70;79.30;;;;;;6249340;22;20154;-86
2022/03/29 22:34:15;;;;;;;27.17;18.63;;;14.70;79.30;;;;;;6249750;22;20147;-86
2022/03/29 22:36:42;;;;;;;28.67;18.60;;;14.70;80.30;;;;;;6250071;22;20170;-85
2022/03/29 22:39:08;;;;;;;32.67;19.37;;;14.60;79.60;;;;;;6249382;22;20233;-86
2022/03/29 22:41:34;;;;;;;30.17;19.73;;;14.50;79.80;;;;;;6249318;22;20626;-86
2022/03/29 22:44:01;;;;;;;28.73;19.53;;;14.40;80.10;;;;;;6276457;22;20155;-86
2022/03/29 22:46:26;;;;;;;30.50;19.80;;;14.40;80.20;;;;;;6251371;22;20189;-86
2022/03/29 22:48:52;;;;;;;32.00;20.07;;;14.50;80.00;;;;;;6252062;22;20154;-87
2022/03/29 22:51:17;;;;;;;35.60;20.07;;;14.50;79.90;;;;;;6251527;22;20150;-86
2022/03/29 22:53:43;;;;;;;29.13;18.60;;;14.50;80.00;;;;;;6251603;22;20153;-86
2022/03/29 22:58:54;;;;;;;28.63;18.33;;;14.40;80.50;;;;;;6279627;22;20176;-87
2022/03/29 23:01:20;;;;;;;33.87;21.23;;;14.30;81.50;;;;;;6252169;22;20170;-87
2022/03/29 23:03:46;;;;;;;34.63;20.10;;;14.50;80.40;;;;;;6253454;22;20150;-88
2022/03/29 23:06:12;;;;;;;34.47;20.37;;;14.50;80.90;;;;;;6253289;22;20193;-88
2022/03/29 23:08:37;;;;;;;33.07;19.70;;;14.60;79.90;;;;;;6253044;22;20168;-87
2022/03/29 23:11:03;;;;;;;32.77;20.47;;;14.40;80.20;;;;;;6222204;23;20264;-86
2022/03/29 23:13:29;;;;;;;33.07;20.97;;;14.40;80.50;;;;;;6220963;23;20151;-87
2022/03/29 23:15:55;;;;;;;32.63;21.40;;;14.50;80.40;;;;;;6220530;23;20622;-87
2022/03/29 23:18:21;;;;;;;31.07;19.57;;;14.50;80.40;;;;;;6220922;23;20154;-86
2022/03/29 23:20:46;;;;;;;33.70;20.57;;;14.40;80.60;;;;;;6221057;23;20179;-85